createdAt,value
2017-11-05T00:02:19.815Z,14.00
2017-11-05T00:04:47.353Z,14.50
2017-11-05T00:07:15.634Z,14.10
2017-11-05T00:09:43.172Z,13.90
2017-11-05T00:12:10.684Z,14.10
2017-11-05T00:14:38.204Z,13.40
2017-11-05T00:17:05.742Z,14.73
2017-11-05T00:19:33.255Z,13.83
2017-11-05T00:22:00.792Z,13.83
2017-11-05T00:24:28.301Z,15.43
2017-11-05T00:26:56.572Z,14.33
2017-11-05T00:29:24.873Z,13.70
2017-11-05T00:31:52.388Z,14.70
2017-11-05T00:34:19.890Z,13.50
2017-11-05T00:36:47.494Z,14.00
2017-11-05T00:39:15.798Z,13.70
2017-11-05T00:41:44.084Z,13.37
2017-11-05T00:44:12.388Z,12.80
2017-11-05T00:46:39.965Z,13.17
2017-11-05T00:49:07.517Z,12.77
2017-11-05T00:51:35.864Z,15.50
2017-11-05T00:54:04.573Z,16.43
2017-11-05T00:56:32.156Z,13.50
2017-11-05T00:58:59.784Z,13.70
2017-11-05T01:01:27.320Z,13.63
2017-11-05T01:03:55.650Z,13.90
2017-11-05T01:06:23.197Z,12.93
2017-11-05T01:08:50.770Z,15.83
2017-11-05T01:11:18.331Z,14.77
2017-11-05T01:13:45.901Z,14.83
2017-11-05T01:16:13.469Z,14.47
2017-11-05T01:18:40.982Z,13.77
2017-11-05T01:21:08.580Z,13.13
2017-11-05T01:23:36.085Z,14.70
2017-11-05T01:26:03.640Z,15.00
2017-11-05T01:28:31.941Z,13.87
2017-11-05T01:31:00.244Z,14.27
2017-11-05T01:33:27.805Z,14.63
2017-11-05T01:35:55.350Z,13.40
2017-11-05T01:38:22.904Z,14.20
2017-11-05T01:40:50.454Z,14.40
2017-11-05T01:43:18.726Z,13.67
2017-11-05T01:45:47.076Z,13.90
2017-11-05T01:48:15.348Z,13.93
2017-11-05T01:50:42.900Z,13.83
2017-11-05T01:53:10.447Z,13.53
2017-11-05T01:55:37.968Z,13.17
2017-11-05T01:58:06.353Z,13.93
2017-11-05T02:00:33.871Z,14.57
2017-11-05T02:03:01.436Z,13.50
2017-11-05T02:05:28.972Z,14.57
2017-11-05T02:07:56.477Z,13.97
2017-11-05T02:10:24.758Z,13.43
2017-11-05T02:12:53.305Z,13.80
2017-11-05T02:15:20.853Z,13.83
2017-11-05T02:17:48.361Z,14.43
2017-11-05T02:20:16.668Z,13.80
2017-11-05T02:22:44.186Z,12.50
2017-11-05T02:25:11.691Z,13.30
2017-11-05T02:27:39.220Z,11.80
2017-11-05T02:30:07.526Z,13.60
2017-11-05T02:32:35.019Z,14.37
2017-11-05T02:35:02.561Z,13.30
2017-11-05T02:37:30.839Z,15.87
2017-11-05T02:39:58.350Z,13.70
2017-11-05T02:42:26.661Z,13.63
2017-11-05T02:44:54.160Z,13.97
2017-11-05T02:47:21.675Z,12.87
2017-11-05T02:49:49.209Z,15.33
2017-11-05T02:52:17.488Z,14.70
2017-11-05T02:54:45.759Z,13.03
2017-11-05T02:57:14.049Z,14.57
2017-11-05T02:59:41.556Z,13.40
2017-11-05T03:02:09.100Z,13.53
2017-11-05T03:04:36.611Z,14.00
2017-11-05T03:07:04.885Z,15.27
2017-11-05T03:09:33.182Z,14.90
2017-11-05T03:12:00.685Z,12.67
2017-11-05T03:14:28.195Z,13.80
2017-11-05T03:16:55.716Z,12.23
2017-11-05T03:19:23.219Z,14.73
2017-11-05T03:21:53.531Z,13.33
2017-11-05T03:24:21.824Z,14.20
2017-11-05T03:26:49.332Z,14.57
2017-11-05T03:29:16.850Z,13.20
2017-11-05T03:31:44.382Z,13.27
2017-11-05T03:34:11.893Z,14.23
2017-11-05T03:36:39.427Z,14.70
2017-11-05T03:39:06.948Z,13.43
2017-11-05T03:41:34.465Z,13.33
2017-11-05T03:44:01.997Z,14.47
2017-11-05T03:46:29.560Z,13.00
2017-11-05T03:48:59.359Z,12.97
2017-11-05T03:51:27.670Z,14.13
2017-11-05T03:53:55.173Z,14.47
2017-11-05T03:56:22.689Z,13.80
2017-11-05T03:58:50.239Z,15.00
2017-11-05T04:01:17.747Z,12.90
2017-11-05T04:03:45.257Z,12.97
2017-11-05T04:06:12.810Z,13.33
2017-11-05T04:08:40.319Z,12.37
2017-11-05T04:11:07.827Z,13.57
2017-11-05T04:13:35.366Z,13.87
2017-11-05T04:16:03.638Z,11.53
2017-11-05T04:18:31.992Z,12.97
2017-11-05T04:20:59.529Z,13.60
2017-11-05T04:23:27.041Z,12.90
2017-11-05T04:25:55.321Z,12.90
2017-11-05T04:28:23.613Z,13.03
2017-11-05T04:30:51.910Z,12.40
2017-11-05T04:33:19.418Z,12.90
2017-11-05T04:35:47.250Z,13.87
2017-11-05T04:38:14.764Z,12.60
2017-11-05T04:40:42.269Z,13.30
2017-11-05T04:43:09.806Z,13.20
2017-11-05T04:45:37.312Z,14.20
2017-11-05T04:48:04.820Z,13.17
2017-11-05T04:50:32.377Z,13.33
2017-11-05T04:52:59.896Z,12.87
2017-11-05T04:55:27.410Z,11.83
2017-11-05T04:57:54.949Z,13.93
2017-11-05T05:00:23.250Z,13.10
2017-11-05T05:02:50.764Z,12.90
2017-11-05T05:05:18.309Z,13.03
2017-11-05T05:07:45.814Z,13.23
2017-11-05T05:10:13.321Z,13.40
2017-11-05T05:12:40.855Z,14.40
2017-11-05T05:15:08.365Z,12.20
2017-11-05T05:17:36.665Z,13.30
2017-11-05T05:20:04.173Z,12.83
2017-11-05T05:22:31.709Z,14.10
2017-11-05T05:24:59.207Z,13.60
2017-11-05T05:27:26.714Z,13.23
2017-11-05T05:29:54.248Z,14.70
2017-11-05T05:32:21.753Z,12.77
2017-11-05T05:34:49.269Z,12.70
2017-11-05T05:37:17.584Z,13.20
2017-11-05T05:39:45.102Z,14.80
2017-11-05T05:42:12.605Z,15.40
2017-11-05T05:44:40.149Z,14.60
2017-11-05T05:47:07.665Z,15.57
2017-11-05T05:49:35.947Z,14.37
2017-11-05T05:52:03.476Z,14.30
2017-11-05T05:54:31.008Z,13.57
2017-11-05T05:56:58.514Z,13.40
2017-11-05T05:59:26.029Z,14.00
2017-11-05T06:01:53.580Z,13.10
2017-11-05T06:04:21.085Z,14.10
2017-11-05T06:06:48.603Z,12.60
2017-11-05T06:09:16.128Z,13.60
2017-11-05T06:11:44.400Z,13.40
2017-11-05T06:14:11.927Z,13.83
2017-11-05T06:16:39.429Z,13.23
2017-11-05T06:19:07.696Z,13.80
2017-11-05T06:21:36.019Z,13.17
2017-11-05T06:24:03.528Z,13.40
2017-11-05T06:26:31.024Z,11.97
2017-11-05T06:28:58.564Z,11.47
2017-11-05T06:31:26.073Z,14.07
2017-11-05T06:33:53.580Z,12.70
2017-11-05T06:36:21.877Z,12.47
2017-11-05T06:38:49.400Z,12.17
2017-11-05T06:41:16.920Z,12.20
2017-11-05T06:43:44.460Z,12.97
2017-11-05T06:46:11.982Z,13.27
2017-11-05T06:48:41.185Z,12.30
2017-11-05T06:51:09.492Z,10.93
2017-11-05T06:53:36.993Z,13.53
2017-11-05T06:56:04.545Z,14.00
2017-11-05T06:58:32.057Z,14.60
2017-11-05T07:01:00.348Z,12.23
2017-11-05T07:03:27.889Z,12.90
2017-11-05T07:05:55.430Z,13.00
2017-11-05T07:08:22.940Z,13.03
2017-11-05T07:10:50.475Z,12.63
2017-11-05T07:13:18.008Z,12.17
2017-11-05T07:15:45.540Z,11.60
2017-11-05T07:18:13.046Z,13.00
2017-11-05T07:20:40.563Z,14.30
2017-11-05T07:23:08.685Z,12.00
2017-11-05T07:25:36.225Z,10.50
2017-11-05T07:28:03.750Z,12.83
2017-11-05T07:30:32.082Z,11.53
2017-11-05T07:33:00.365Z,13.20
2017-11-05T07:35:28.635Z,13.90
2017-11-05T07:37:56.939Z,11.87
2017-11-05T07:40:24.447Z,13.33
2017-11-05T07:42:51.986Z,12.43
2017-11-05T07:45:19.729Z,13.07
2017-11-05T07:47:47.417Z,12.10
2017-11-05T07:50:15.742Z,12.60
2017-11-05T07:52:44.027Z,12.70
2017-11-05T07:55:11.558Z,11.30
2017-11-05T07:57:39.897Z,12.83
2017-11-05T08:00:07.425Z,13.50
2017-11-05T08:02:34.974Z,12.10
2017-11-05T08:05:03.261Z,13.60
2017-11-05T08:07:30.785Z,12.43
2017-11-05T08:09:58.324Z,12.50
2017-11-05T08:12:25.839Z,12.60
2017-11-05T08:14:53.389Z,12.50
2017-11-05T08:17:20.893Z,13.30
2017-11-05T08:19:48.413Z,13.07
2017-11-05T08:22:15.972Z,11.83
2017-11-05T08:24:43.518Z,12.30
2017-11-05T08:27:11.806Z,13.00
2017-11-05T08:29:40.118Z,10.90
2017-11-05T08:32:07.633Z,10.97
2017-11-05T08:34:35.920Z,12.60
2017-11-05T08:37:03.464Z,12.27
2017-11-05T08:39:30.977Z,11.93
2017-11-05T08:41:58.523Z,12.60
2017-11-05T08:44:26.078Z,11.87
2017-11-05T08:46:53.614Z,12.97
2017-11-05T08:49:21.148Z,12.50
2017-11-05T08:51:48.661Z,10.50
2017-11-05T08:54:16.172Z,11.17
2017-11-05T08:56:43.704Z,11.40
2017-11-05T08:59:11.980Z,12.17
2017-11-05T09:01:39.553Z,11.17
2017-11-05T09:04:07.089Z,12.10
2017-11-05T09:06:34.623Z,12.30
2017-11-05T09:09:02.161Z,11.87
2017-11-05T09:11:29.680Z,10.90
2017-11-05T09:13:57.202Z,11.27
2017-11-05T09:16:24.736Z,12.30
2017-11-05T09:18:52.253Z,13.07
2017-11-05T09:21:19.804Z,12.30
2017-11-05T09:23:47.364Z,11.30
2017-11-05T09:26:14.908Z,11.70
2017-11-05T09:28:42.454Z,12.17
2017-11-05T09:31:09.999Z,13.17
2017-11-05T09:33:38.321Z,12.20
2017-11-05T09:36:05.871Z,12.00
2017-11-05T09:38:33.411Z,13.10
2017-11-05T09:41:01.709Z,12.30
2017-11-05T09:43:29.291Z,11.70
2017-11-05T09:45:56.826Z,15.13
2017-11-05T09:48:24.414Z,12.27
2017-11-05T09:50:51.973Z,11.13
2017-11-05T09:53:19.519Z,10.90
2017-11-05T09:55:47.046Z,11.53
2017-11-05T09:58:15.392Z,11.20
2017-11-05T10:00:42.959Z,12.20
2017-11-05T10:03:10.514Z,12.13
2017-11-05T10:05:38.056Z,11.00
2017-11-05T10:08:05.576Z,12.00
2017-11-05T10:10:33.907Z,12.50
2017-11-05T10:13:01.418Z,12.40
2017-11-05T10:15:28.933Z,12.70
2017-11-05T10:17:56.493Z,12.30
2017-11-05T10:20:24.026Z,12.93
2017-11-05T10:22:51.552Z,12.80
2017-11-05T10:25:19.105Z,12.27
2017-11-05T10:27:46.623Z,12.63
2017-11-05T10:30:14.128Z,11.73
2017-11-05T10:32:42.432Z,10.90
2017-11-05T10:35:09.949Z,12.97
2017-11-05T10:37:38.237Z,10.97
2017-11-05T10:40:05.818Z,11.60
2017-11-05T10:42:33.356Z,10.83
2017-11-05T10:45:01.637Z,10.47
2017-11-05T10:47:29.203Z,10.70
2017-11-05T10:49:56.827Z,12.30
2017-11-05T10:52:24.357Z,12.93
2017-11-05T10:54:51.922Z,12.30
2017-11-05T10:57:19.441Z,12.03
2017-11-05T10:59:47.728Z,12.50
2017-11-05T11:02:15.305Z,12.50
2017-11-05T11:04:42.917Z,12.40
2017-11-05T11:07:10.484Z,13.63
2017-11-05T11:09:38.784Z,12.23
2017-11-05T11:12:06.304Z,13.83
2017-11-05T11:14:33.865Z,13.20
2017-11-05T11:17:02.153Z,12.30
2017-11-05T11:19:29.685Z,11.40
2017-11-05T11:21:57.255Z,12.80
2017-11-05T11:24:24.765Z,13.63
2017-11-05T11:26:52.317Z,12.83
2017-11-05T11:29:19.845Z,14.13
2017-11-05T11:31:47.356Z,13.50
2017-11-05T11:34:14.924Z,16.87
2017-11-05T11:36:42.438Z,13.27
2017-11-05T11:39:10.774Z,12.53
2017-11-05T11:41:38.725Z,11.97
2017-11-05T11:44:06.415Z,12.97
2017-11-05T11:46:33.937Z,12.07
2017-11-05T11:49:01.514Z,12.20
2017-11-05T11:51:29.025Z,13.27
2017-11-05T11:53:56.545Z,11.90
2017-11-05T11:56:24.090Z,13.60
2017-11-05T11:58:51.597Z,12.87
2017-11-05T12:01:19.145Z,13.70
2017-11-05T12:03:46.661Z,13.57
2017-11-05T12:06:14.173Z,13.40
2017-11-05T12:08:41.715Z,13.07
2017-11-05T12:11:09.250Z,17.90
2017-11-05T12:13:36.754Z,15.20
2017-11-05T12:16:04.292Z,17.07
2017-11-05T12:18:31.803Z,15.33
2017-11-05T12:21:00.085Z,13.87
2017-11-05T12:23:27.966Z,14.57
2017-11-05T12:25:55.471Z,15.10
2017-11-05T12:28:22.981Z,15.40
2017-11-05T12:30:50.545Z,14.97
2017-11-05T12:33:18.055Z,16.77
2017-11-05T12:35:45.566Z,15.87
2017-11-05T12:38:13.116Z,14.80
2017-11-05T12:40:40.644Z,14.30
2017-11-05T12:43:08.173Z,16.50
2017-11-05T12:45:35.727Z,15.13
2017-11-05T12:48:03.231Z,14.37
2017-11-05T12:50:30.746Z,14.27
2017-11-05T12:52:58.321Z,14.57
2017-11-05T12:55:25.846Z,14.50
2017-11-05T12:57:53.365Z,14.77
2017-11-05T13:00:21.676Z,15.20
2017-11-05T13:02:49.193Z,13.83
2017-11-05T13:05:16.704Z,13.77
2017-11-05T13:07:44.254Z,15.40
2017-11-05T13:10:11.776Z,16.00
2017-11-05T13:12:39.323Z,14.50
2017-11-05T13:15:06.838Z,16.33
2017-11-05T13:17:34.358Z,8.47
2017-11-05T13:20:01.905Z,5.00
2017-11-05T13:22:29.408Z,4.07
2017-11-05T13:24:56.924Z,2.93
2017-11-05T13:27:24.479Z,2.67
2017-11-05T13:29:51.980Z,2.40
2017-11-05T13:32:19.512Z,2.07
2017-11-05T13:34:47.032Z,2.20
2017-11-05T13:37:14.541Z,2.67
2017-11-05T13:39:42.870Z,2.00
2017-11-05T13:42:10.384Z,2.50
2017-11-05T13:44:38.741Z,1.90
2017-11-05T13:47:06.269Z,2.03
2017-11-05T13:49:33.769Z,2.40
2017-11-05T13:52:01.300Z,1.80
2017-11-05T13:54:28.797Z,2.50
2017-11-05T13:56:57.057Z,2.67
2017-11-05T13:59:24.602Z,2.20
2017-11-05T14:01:52.109Z,2.10
2017-11-05T14:04:19.628Z,1.80
2017-11-05T14:06:47.155Z,2.17
2017-11-05T14:09:14.661Z,1.67
2017-11-05T14:11:42.156Z,2.20
2017-11-05T14:14:09.693Z,2.77
2017-11-05T14:16:37.968Z,2.27
2017-11-05T14:19:06.228Z,2.70
2017-11-05T14:21:33.787Z,2.23
2017-11-05T14:24:01.305Z,2.03
2017-11-05T14:26:28.821Z,2.07
2017-11-05T14:28:57.130Z,2.43
2017-11-05T14:31:24.629Z,2.13
2017-11-05T14:33:52.136Z,2.57
2017-11-05T14:36:19.926Z,3.07
2017-11-05T14:38:47.665Z,2.57
2017-11-05T14:41:15.297Z,2.43
2017-11-05T14:43:42.814Z,2.73
2017-11-05T14:46:10.372Z,2.70
2017-11-05T14:48:37.945Z,2.80
2017-11-05T14:51:06.232Z,1.80
2017-11-05T14:53:33.759Z,2.40
2017-11-05T14:56:01.290Z,2.27
2017-11-05T14:58:28.804Z,2.20
2017-11-05T15:00:56.373Z,2.50
2017-11-05T15:03:23.897Z,2.23
2017-11-05T15:05:51.417Z,1.87
2017-11-05T15:08:18.958Z,2.10
2017-11-05T15:10:46.509Z,2.70
2017-11-05T15:13:14.012Z,2.20
2017-11-05T15:15:42.324Z,1.70
2017-11-05T15:18:09.824Z,1.80
2017-11-05T15:20:37.345Z,2.10
2017-11-05T15:23:05.041Z,1.43
2017-11-05T15:25:32.744Z,2.10
2017-11-05T15:28:00.264Z,2.03
2017-11-05T15:30:28.653Z,2.37
2017-11-05T15:32:56.182Z,2.30
2017-11-05T15:35:23.696Z,2.43
2017-11-05T15:37:52.094Z,2.63
2017-11-05T15:40:19.613Z,2.63
2017-11-05T15:42:47.195Z,2.33
2017-11-05T15:45:14.729Z,2.20
2017-11-05T15:47:42.262Z,3.07
2017-11-05T15:50:09.810Z,2.60
2017-11-05T15:52:37.973Z,2.50
2017-11-05T15:55:05.509Z,2.80
2017-11-05T15:57:33.285Z,2.87
2017-11-05T16:00:00.832Z,2.60
2017-11-05T16:02:29.184Z,2.47
2017-11-05T16:04:57.346Z,2.90
2017-11-05T16:07:25.184Z,2.33
2017-11-05T16:09:52.744Z,2.40
2017-11-05T16:12:20.458Z,3.10
2017-11-05T16:14:48.104Z,2.93
2017-11-05T16:17:16.711Z,3.40
2017-11-05T16:19:46.238Z,3.80
2017-11-05T16:22:14.093Z,3.90
2017-11-05T16:24:42.591Z,4.50
2017-11-05T16:27:10.383Z,4.10
2017-11-05T16:29:38.038Z,3.90
2017-11-05T16:32:06.629Z,4.40
2017-11-05T16:34:34.271Z,4.47
2017-11-05T16:37:02.004Z,4.13
2017-11-05T16:39:30.561Z,4.50
2017-11-05T16:41:58.145Z,4.93
2017-11-05T16:44:26.009Z,3.83
2017-11-05T16:46:53.696Z,5.07
2017-11-05T16:49:21.450Z,4.40
2017-11-05T16:51:49.009Z,4.37
2017-11-05T16:54:16.540Z,4.90
2017-11-05T16:56:44.245Z,4.67
2017-11-05T16:59:11.937Z,4.57
2017-11-05T17:01:39.629Z,5.00
2017-11-05T17:04:07.703Z,4.17
2017-11-05T17:06:35.455Z,5.50
2017-11-05T17:09:03.169Z,5.87
2017-11-05T17:11:30.724Z,5.07
2017-11-05T17:13:58.536Z,5.53
2017-11-05T17:16:26.191Z,5.27
2017-11-05T17:18:54.157Z,6.00
2017-11-05T17:21:24.192Z,4.80
2017-11-05T17:23:53.138Z,4.60
2017-11-05T17:26:21.046Z,5.93
2017-11-05T17:28:48.630Z,5.80
2017-11-05T17:31:16.160Z,5.03
2017-11-05T17:33:43.665Z,5.27
2017-11-05T17:36:14.088Z,5.20
2017-11-05T17:38:41.657Z,5.33
2017-11-05T17:41:09.163Z,5.17
2017-11-05T17:43:36.736Z,4.70
2017-11-05T17:46:04.294Z,4.80
2017-11-05T17:48:31.855Z,4.73
2017-11-05T17:50:59.542Z,4.20
2017-11-05T17:53:27.094Z,5.20
2017-11-05T17:55:54.699Z,5.00
2017-11-05T17:58:22.257Z,5.13
2017-11-05T18:00:49.879Z,5.40
2017-11-05T18:03:17.500Z,4.80
2017-11-05T18:05:45.232Z,5.50
2017-11-05T18:08:13.048Z,5.23
2017-11-05T18:10:40.672Z,5.00
2017-11-05T18:13:09.188Z,6.07
2017-11-05T18:15:37.018Z,5.63
2017-11-05T18:18:04.562Z,5.23
2017-11-05T18:20:32.273Z,5.13
2017-11-05T18:22:59.895Z,4.23
2017-11-05T18:25:28.231Z,4.50
2017-11-05T18:27:55.784Z,4.67
2017-11-05T18:30:23.577Z,4.57
2017-11-05T18:32:51.187Z,4.00
2017-11-05T18:35:18.799Z,4.83
2017-11-05T18:37:46.343Z,3.90
2017-11-05T18:40:13.912Z,5.10
2017-11-05T18:42:41.719Z,4.80
2017-11-05T18:45:09.500Z,4.60
2017-11-05T18:47:37.242Z,4.50
2017-11-05T18:50:04.911Z,3.97
2017-11-05T18:52:32.562Z,4.00
2017-11-05T18:55:01.051Z,4.23
2017-11-05T18:57:29.842Z,4.70
2017-11-05T18:59:58.056Z,4.83
2017-11-05T19:02:25.972Z,4.43
2017-11-05T19:04:54.183Z,4.63
2017-11-05T19:07:22.839Z,3.73
2017-11-05T19:09:50.623Z,4.20
2017-11-05T19:12:18.665Z,3.87
2017-11-05T19:14:46.629Z,4.30
2017-11-05T19:17:15.194Z,4.50
2017-11-05T19:19:43.320Z,4.80
2017-11-05T19:22:11.221Z,4.10
2017-11-05T19:24:39.260Z,4.50
2017-11-05T19:27:07.085Z,4.50
2017-11-05T19:29:34.719Z,3.77
2017-11-05T19:32:02.404Z,5.07
2017-11-05T19:34:30.033Z,4.50
2017-11-05T19:36:58.042Z,4.87
2017-11-05T19:39:26.678Z,4.77
2017-11-05T19:41:54.834Z,4.53
2017-11-05T19:44:23.049Z,4.80
2017-11-05T19:46:52.224Z,5.03
2017-11-05T19:49:21.253Z,5.83
2017-11-05T19:51:49.814Z,5.53
2017-11-05T19:54:18.571Z,5.10
2017-11-05T19:56:47.035Z,5.30
2017-11-05T19:59:15.592Z,5.90
2017-11-05T20:01:44.364Z,5.73
2017-11-05T20:04:13.553Z,6.80
2017-11-05T20:06:42.101Z,6.80
2017-11-05T20:09:11.505Z,7.40
2017-11-05T20:11:40.052Z,7.93
2017-11-05T20:14:08.544Z,6.83
2017-11-05T20:16:37.099Z,7.27
2017-11-05T20:19:06.344Z,8.40
2017-11-05T20:21:34.850Z,8.30
2017-11-05T20:24:03.620Z,8.63
2017-11-05T20:26:33.297Z,8.27
2017-11-05T20:29:02.495Z,7.73
2017-11-05T20:31:31.135Z,8.60
2017-11-05T20:33:59.783Z,8.10
2017-11-05T20:36:28.582Z,8.27
2017-11-05T20:38:57.964Z,9.80
2017-11-05T20:41:26.651Z,9.77
2017-11-05T20:43:55.151Z,10.13
2017-11-05T20:46:23.486Z,8.20
2017-11-05T20:48:53.129Z,8.23
2017-11-05T20:51:22.065Z,7.63
2017-11-05T20:53:50.302Z,8.53
2017-11-05T20:56:19.253Z,9.57
2017-11-05T20:58:48.168Z,7.70
2017-11-05T21:01:16.234Z,7.20
2017-11-05T21:03:44.222Z,9.47
2017-11-05T21:06:12.335Z,9.07
2017-11-05T21:08:41.023Z,8.30
2017-11-05T21:11:08.782Z,9.10
2017-11-05T21:13:36.941Z,7.83
2017-11-05T21:16:04.562Z,8.27
2017-11-05T21:18:32.226Z,9.67
2017-11-05T21:20:59.980Z,10.60
2017-11-05T21:23:27.525Z,8.30
2017-11-05T21:25:56.257Z,10.30
2017-11-05T21:28:23.949Z,9.40
2017-11-05T21:30:51.493Z,11.50
2017-11-05T21:33:19.135Z,9.97
2017-11-05T21:35:46.683Z,9.90
2017-11-05T21:38:14.240Z,10.03
2017-11-05T21:40:41.813Z,10.17
2017-11-05T21:43:09.755Z,10.60
2017-11-05T21:45:38.615Z,11.10
2017-11-05T21:48:06.123Z,12.00
2017-11-05T21:50:33.691Z,10.70
2017-11-05T21:53:01.217Z,10.90
2017-11-05T21:55:29.488Z,11.33
2017-11-05T21:57:57.049Z,11.10
2017-11-05T22:00:24.609Z,12.60
2017-11-05T22:02:52.879Z,11.03
2017-11-05T22:05:21.188Z,12.83
2017-11-05T22:07:48.709Z,11.90
2017-11-05T22:10:16.215Z,13.20
2017-11-05T22:12:43.740Z,11.43
2017-11-05T22:15:12.014Z,13.57
2017-11-05T22:17:39.558Z,13.57
2017-11-05T22:20:07.064Z,14.87
2017-11-05T22:22:34.572Z,12.80
2017-11-05T22:25:02.113Z,13.67
2017-11-05T22:27:29.617Z,11.53
2017-11-05T22:29:57.129Z,12.80
2017-11-05T22:32:24.666Z,13.13
2017-11-05T22:34:52.173Z,13.73
2017-11-05T22:37:19.701Z,12.00
2017-11-05T22:39:47.250Z,12.63
2017-11-05T22:42:14.760Z,13.60
2017-11-05T22:44:42.380Z,12.70
2017-11-05T22:47:09.916Z,12.43
2017-11-05T22:49:37.460Z,11.73
2017-11-05T22:52:05.736Z,11.70
2017-11-05T22:54:34.039Z,11.67
2017-11-05T22:57:01.683Z,10.80
2017-11-05T22:59:30.025Z,12.03
2017-11-05T23:01:57.528Z,11.77
2017-11-05T23:04:25.040Z,11.97
2017-11-05T23:06:52.572Z,12.43
2017-11-05T23:09:20.079Z,11.87
2017-11-05T23:11:48.365Z,12.83
2017-11-05T23:14:15.907Z,12.70
2017-11-05T23:16:43.469Z,12.43
2017-11-05T23:19:10.980Z,11.60
2017-11-05T23:21:45.065Z,11.07
2017-11-05T23:24:13.683Z,11.90
2017-11-05T23:26:41.270Z,14.50
2017-11-05T23:29:08.785Z,12.87
2017-11-05T23:31:36.295Z,13.40
2017-11-05T23:34:04.598Z,13.40
2017-11-05T23:36:33.126Z,12.57
2017-11-05T23:39:00.688Z,11.90
2017-11-05T23:41:29.205Z,13.07
2017-11-05T23:43:56.716Z,13.87
2017-11-05T23:46:24.223Z,15.80
2017-11-05T23:48:51.769Z,14.77
2017-11-05T23:51:19.279Z,12.80
2017-11-05T23:53:47.690Z,15.10
2017-11-05T23:56:15.227Z,14.33
2017-11-05T23:58:42.746Z,13.57
